Time;durP1;ratioP1;P1;durP2;ratioP2;P2;SDS_P1;SDS_P2;PMS_P1;PMS_P2;Temp;Humidity;BMP_temperature;BMP_pressure;BME280_temperature;BME280_humidity;BME280_pressure;Samples;Min_cycle;Max_cycle;Signal;HPM_P1;HPM_P2
2022/01/22 00:02:07;;;;;;;4.73;1.93;;;;;;;;;;5088509;28;20031;-73
2022/01/22 00:04:33;;;;;;;1.93;1.60;;;;;;;;;;5088448;28;20063;-73
2022/01/22 00:07:01;;;;;;;4.57;2.30;;;;;;;;;;5088900;28;20059;-73
2022/01/22 00:09:28;;;;;;;2.63;1.77;;;;;;;;;;5087860;28;20031;-74
2022/01/22 00:11:55;;;;;;;2.53;1.80;;;;;;;;;;5090008;28;20114;-73
2022/01/22 00:14:24;;;;;;;2.00;1.53;;;;;;;;;;5088649;28;20114;-74
2022/01/22 00:16:56;;;;;;;3.10;1.77;;;;;;;;;;5090128;28;20024;-73
2022/01/22 00:19:23;;;;;;;2.90;1.90;;;;;;;;;;5088500;28;20115;-74
2022/01/22 00:21:49;;;;;;;2.97;2.20;;;;;;;;;;5089407;28;20030;-73
2022/01/22 00:24:15;;;;;;;2.53;1.93;;;;;;;;;;5089719;28;20024;-73
2022/01/22 00:26:42;;;;;;;2.60;2.00;;;;;;;;;;5088229;28;20048;-73
2022/01/22 00:29:09;;;;;;;8.30;1.80;;;;;;;;;;5089728;28;20292;-72
2022/01/22 00:31:36;;;;;;;2.00;1.60;;;;;;;;;;5089557;28;20341;-72
2022/01/22 00:34:01;;;;;;;2.43;1.80;;;;;;;;;;5088241;28;20058;-72
2022/01/22 00:36:27;;;;;;;3.10;2.10;;;;;;;;;;5088100;28;20044;-72
2022/01/22 00:38:52;;;;;;;3.23;2.13;;;;;;;;;;5088117;28;20020;-73
2022/01/22 00:41:18;;;;;;;2.03;1.70;;;;;;;;;;5089418;28;20024;-72
2022/01/22 00:43:43;;;;;;;6.87;2.37;;;;;;;;;;5088074;28;20032;-73
2022/01/22 00:46:09;;;;;;;7.63;2.10;;;;;;;;;;5088233;28;20124;-73
2022/01/22 00:48:34;;;;;;;2.10;1.90;;;;;;;;;;5089495;28;20106;-73
2022/01/22 00:51:00;;;;;;;3.30;1.70;;;;;;;;;;5088563;28;20098;-73
2022/01/22 00:53:26;;;;;;;1.20;1.10;;;;;;;;;;5089521;28;20472;-73
2022/01/22 00:55:52;;;;;;;3.00;2.00;;;;;;;;;;5087992;28;20242;-72
2022/01/22 00:58:18;;;;;;;1.73;1.53;;;;;;;;;;5088269;28;20027;-73
2022/01/22 01:00:43;;;;;;;5.20;1.87;;;;;;;;;;5089385;28;20094;-72
2022/01/22 01:03:10;;;;;;;2.77;1.80;;;;;;;;;;5089721;28;20032;-73
2022/01/22 01:05:35;;;;;;;2.37;1.37;;;;;;;;;;5089859;28;20111;-73
2022/01/22 01:08:01;;;;;;;2.87;1.63;;;;;;;;;;5090772;28;20536;-73
2022/01/22 01:10:27;;;;;;;4.07;1.60;;;;;;;;;;5090043;28;20422;-73
2022/01/22 01:12:53;;;;;;;2.20;1.60;;;;;;;;;;5089072;28;20027;-73
2022/01/22 01:34:13;;;;;;;2.40;1.27;;;;;;;;;;5093156;28;20034;-72
2022/01/22 01:36:40;;;;;;;3.83;1.07;;;;;;;;;;5090936;28;20036;-73
2022/01/22 01:39:10;;;;;;;2.73;1.03;;;;;;;;;;5091316;28;20032;-72
2022/01/22 01:44:01;;;;;;;2.77;1.50;;;;;;;;;;5092979;28;20118;-73
2022/01/22 01:46:30;;;;;;;4.60;1.20;;;;;;;;;;5091190;28;20027;-73
2022/01/22 01:48:57;;;;;;;1.40;1.30;;;;;;;;;;5092233;28;20016;-73
2022/01/22 01:51:25;;;;;;;1.70;1.60;;;;;;;;;;5092435;28;20487;-73
2022/01/22 01:59:03;;;;;;;2.60;1.30;;;;;;;;;;5092719;28;20031;-73
2022/01/22 02:01:29;;;;;;;1.33;1.20;;;;;;;;;;5092394;28;20028;-72
2022/01/22 02:03:55;;;;;;;1.10;1.03;;;;;;;;;;5092080;28;20474;-73
2022/01/22 02:06:21;;;;;;;1.13;0.87;;;;;;;;;;5092112;28;20464;-73
2022/01/22 02:08:47;;;;;;;1.00;0.90;;;;;;;;;;5090453;28;20100;-73
2022/01/22 02:11:14;;;;;;;2.13;0.80;;;;;;;;;;5090594;28;20028;-73
2022/01/22 02:24:45;;;;;;;2.13;0.87;;;;;;;;;;5091907;28;20502;-73
2022/01/22 02:27:11;;;;;;;3.57;0.90;;;;;;;;;;5090448;28;20106;-74
2022/01/22 02:29:37;;;;;;;1.93;0.83;;;;;;;;;;5091270;28;20016;-73
2022/01/22 02:34:55;;;;;;;1.77;0.90;;;;;;;;;;5091776;28;20077;-73
2022/01/22 02:37:23;;;;;;;0.70;0.70;;;;;;;;;;5090022;28;20127;-73
2022/01/22 02:40:06;;;;;;;1.03;0.60;;;;;;;;;;5091428;28;20027;-73
2022/01/22 02:42:34;;;;;;;0.93;0.70;;;;;;;;;;5091451;28;20099;-73
2022/01/22 02:45:06;;;;;;;1.50;1.10;;;;;;;;;;5089971;28;20024;-73
2022/01/22 02:47:32;;;;;;;0.82;0.70;;;;;;;;;;5090230;28;20028;-72
2022/01/22 02:49:57;;;;;;;0.53;0.53;;;;;;;;;;5091224;28;20348;-74
2022/01/22 02:52:24;;;;;;;0.70;0.70;;;;;;;;;;5091317;28;20392;-73
2022/01/22 02:54:49;;;;;;;0.67;0.60;;;;;;;;;;5089676;28;20035;-73
2022/01/22 02:57:15;;;;;;;1.47;0.77;;;;;;;;;;5089538;28;20024;-73
2022/01/22 02:59:41;;;;;;;1.10;0.70;;;;;;;;;;5090826;28;20028;-72
2022/01/22 03:02:08;;;;;;;1.97;0.57;;;;;;;;;;5091033;28;20139;-73
2022/01/22 03:04:34;;;;;;;0.70;0.70;;;;;;;;;;5091026;28;20035;-73
2022/01/22 03:06:59;;;;;;;0.50;0.50;;;;;;;;;;5091292;28;20035;-73
2022/01/22 03:09:31;;;;;;;0.70;0.70;;;;;;;;;;5090904;28;20051;-73
2022/01/22 03:17:50;;;;;;;4.13;0.80;;;;;;;;;;5090837;28;20043;-73
2022/01/22 03:28:00;;;;;;;1.40;0.80;;;;;;;;;;5090502;28;20551;-72
2022/01/22 03:30:26;;;;;;;0.40;0.40;;;;;;;;;;5088946;28;20115;-72
2022/01/22 03:32:54;;;;;;;2.33;0.73;;;;;;;;;;5089904;28;20088;-73
2022/01/22 03:37:51;;;;;;;0.73;0.50;;;;;;;;;;5090255;28;20067;-74
2022/01/22 03:40:18;;;;;;;0.70;0.50;;;;;;;;;;5088959;28;20028;-73
2022/01/22 03:42:44;;;;;;;0.57;0.40;;;;;;;;;;5089955;28;20104;-72
2022/01/22 03:45:11;;;;;;;0.50;0.40;;;;;;;;;;5089982;28;20024;-74
2022/01/22 03:47:39;;;;;;;1.70;0.40;;;;;;;;;;5090072;28;20028;-73
2022/01/22 03:50:07;;;;;;;0.30;0.30;;;;;;;;;;5088459;28;20031;-73
2022/01/22 03:52:33;;;;;;;0.47;0.40;;;;;;;;;;5090155;28;20399;-73
2022/01/22 03:54:58;;;;;;;0.30;0.30;;;;;;;;;;5088321;28;20034;-74
2022/01/22 03:57:24;;;;;;;0.23;0.13;;;;;;;;;;5090518;28;20172;-72
2022/01/22 03:59:53;;;;;;;2.43;0.30;;;;;;;;;;5089610;28;20531;-72
2022/01/22 04:04:58;;;;;;;1.77;0.30;;;;;;;;;;5088567;28;20027;-72
2022/01/22 04:10:09;;;;;;;0.20;0.20;;;;;;;;;;5090855;28;20490;-71
2022/01/22 04:12:53;;;;;;;0.43;0.20;;;;;;;;;;5090157;28;20024;-73
2022/01/22 04:15:23;;;;;;;0.20;0.20;;;;;;;;;;5088365;28;20028;-74
2022/01/22 04:25:50;;;;;;;0.30;0.30;;;;;;;;;;5089441;28;20321;-73
2022/01/22 04:28:16;;;;;;;0.37;0.37;;;;;;;;;;5089385;28;20448;-73
2022/01/22 04:30:41;;;;;;;0.10;0.10;;;;;;;;;;5089353;28;20055;-73
2022/01/22 04:33:07;;;;;;;2.60;0.30;;;;;;;;;;5089496;28;20534;-73
2022/01/22 04:35:32;;;;;;;2.23;0.20;;;;;;;;;;5089078;28;20123;-72
2022/01/22 04:37:58;;;;;;;1.03;0.30;;;;;;;;;;5089071;28;20024;-73
2022/01/22 04:40:24;;;;;;;0.83;0.20;;;;;;;;;;5087976;28;20054;-73
2022/01/22 04:42:50;;;;;;;0.20;0.20;;;;;;;;;;5087780;28;20028;-74
2022/01/22 04:45:28;;;;;;;0.23;0.23;;;;;;;;;;5087909;28;20097;-73
2022/01/22 04:48:25;;;;;;;0.73;0.33;;;;;;;;;;5087804;28;20028;-73
2022/01/22 04:56:18;;;;;;;0.67;0.33;;;;;;;;;;5092971;28;20043;-73
2022/01/22 04:58:43;;;;;;;0.30;0.30;;;;;;;;;;5091750;28;20028;-73
2022/01/22 05:01:09;;;;;;;0.40;0.40;;;;;;;;;;5092807;28;20345;-73
2022/01/22 05:03:34;;;;;;;1.17;0.60;;;;;;;;;;5091722;28;20040;-73
2022/01/22 05:06:00;;;;;;;1.30;0.40;;;;;;;;;;5092923;28;20085;-73
2022/01/22 05:08:26;;;;;;;0.60;0.40;;;;;;;;;;5091685;28;20016;-74
2022/01/22 05:10:51;;;;;;;2.70;0.40;;;;;;;;;;5092837;28;20024;-74
2022/01/22 05:13:17;;;;;;;0.40;0.40;;;;;;;;;;5091547;28;20426;-73
2022/01/22 05:15:42;;;;;;;0.73;0.57;;;;;;;;;;5091294;28;20047;-73
2022/01/22 05:18:09;;;;;;;2.37;0.30;;;;;;;;;;5091376;28;20063;-72
2022/01/22 05:20:44;;;;;;;0.43;0.43;;;;;;;;;;5092856;28;20515;-73
2022/01/22 05:23:17;;;;;;;3.63;0.60;;;;;;;;;;5092762;28;20028;-74
2022/01/22 05:25:52;;;;;;;2.53;0.70;;;;;;;;;;5091236;28;20032;-73
2022/01/22 05:28:36;;;;;;;0.60;0.50;;;;;;;;;;5091426;28;20073;-74
2022/01/22 05:36:56;;;;;;;0.47;0.47;;;;;;;;;;5092988;28;20028;-73
2022/01/22 05:39:10;;;;;;;0.50;0.50;;;;;;;;;;5092368;28;20079;-73
2022/01/22 05:41:38;;;;;;;0.60;0.60;;;;;;;;;;5091548;28;20030;-72
2022/01/22 05:44:03;;;;;;;3.33;0.87;;;;;;;;;;5092789;28;20039;-74
2022/01/22 05:46:29;;;;;;;1.10;0.40;;;;;;;;;;5092493;28;20111;-73
2022/01/22 05:48:54;;;;;;;2.30;0.67;;;;;;;;;;5092109;28;20040;-73
2022/01/22 05:51:20;;;;;;;0.57;0.57;;;;;;;;;;5092285;28;20039;-73
2022/01/22 05:59:37;;;;;;;0.47;0.47;;;;;;;;;;5091830;28;20103;-73
2022/01/22 06:02:08;;;;;;;0.60;0.60;;;;;;;;;;5090569;28;20136;-73
2022/01/22 06:04:34;;;;;;;1.00;0.60;;;;;;;;;;5090457;28;20063;-73
2022/01/22 06:07:01;;;;;;;0.60;0.57;;;;;;;;;;5091810;28;20028;-73
2022/01/22 06:09:27;;;;;;;0.50;0.50;;;;;;;;;;5092134;28;20073;-74
2022/01/22 06:12:03;;;;;;;0.87;0.50;;;;;;;;;;5091618;28;20028;-74
2022/01/22 06:14:29;;;;;;;3.30;0.73;;;;;;;;;;5092145;28;20032;-74
2022/01/22 06:16:54;;;;;;;1.53;0.70;;;;;;;;;;5090050;28;20093;-73
2022/01/22 06:19:20;;;;;;;0.90;0.70;;;;;;;;;;5091569;28;20113;-73
2022/01/22 06:21:45;;;;;;;0.50;0.50;;;;;;;;;;5091490;28;20032;-73
2022/01/22 06:24:12;;;;;;;0.40;0.40;;;;;;;;;;5090098;28;20031;-74
2022/01/22 06:26:39;;;;;;;0.63;0.53;;;;;;;;;;5090332;28;20077;-73
2022/01/22 06:29:05;;;;;;;0.37;0.37;;;;;;;;;;5091334;28;20036;-73
2022/01/22 06:31:30;;;;;;;0.57;0.40;;;;;;;;;;5091628;28;20442;-74
2022/01/22 06:33:58;;;;;;;0.67;0.67;;;;;;;;;;5072784;28;20120;-72
2022/01/22 06:36:23;;;;;;;2.10;0.77;;;;;;;;;;5089839;28;20048;-74
2022/01/22 06:38:55;;;;;;;0.40;0.40;;;;;;;;;;5089997;28;20035;-73
2022/01/22 06:44:05;;;;;;;0.70;0.70;;;;;;;;;;5091375;28;20530;-73
2022/01/22 06:46:30;;;;;;;0.50;0.43;;;;;;;;;;5091445;28;20024;-73
2022/01/22 06:48:56;;;;;;;2.17;0.77;;;;;;;;;;5091348;28;20706;-74
2022/01/22 06:51:25;;;;;;;0.60;0.60;;;;;;;;;;5091816;28;20020;-72
2022/01/22 06:53:52;;;;;;;1.90;0.83;;;;;;;;;;5089624;28;20054;-72
2022/01/22 06:56:20;;;;;;;0.60;0.60;;;;;;;;;;5090925;28;20088;-74
2022/01/22 06:58:47;;;;;;;1.20;0.67;;;;;;;;;;5089626;28;20304;-73
2022/01/22 07:01:12;;;;;;;0.77;0.70;;;;;;;;;;5089481;28;20496;-73
2022/01/22 07:03:38;;;;;;;2.30;0.93;;;;;;;;;;5091629;28;20031;-73
2022/01/22 07:06:04;;;;;;;0.83;0.77;;;;;;;;;;5089288;28;20138;-74
2022/01/22 07:08:29;;;;;;;1.57;0.63;;;;;;;;;;5090840;28;20027;-74
2022/01/22 07:10:55;;;;;;;1.30;1.20;;;;;;;;;;5089591;28;20039;-74
2022/01/22 07:13:20;;;;;;;0.60;0.60;;;;;;;;;;5091096;28;20625;-72
2022/01/22 07:15:46;;;;;;;0.87;0.77;;;;;;;;;;5089359;28;20049;-74
2022/01/22 07:18:13;;;;;;;0.47;0.43;;;;;;;;;;5089878;28;20031;-74
2022/01/22 07:20:41;;;;;;;1.53;0.50;;;;;;;;;;5090710;28;20020;-74
2022/01/22 07:23:20;;;;;;;1.00;0.63;;;;;;;;;;5089034;28;20495;-74
2022/01/22 07:25:46;;;;;;;0.73;0.60;;;;;;;;;;5089194;28;20487;-73
2022/01/22 07:28:13;;;;;;;1.47;0.90;;;;;;;;;;5088991;28;20031;-74
2022/01/22 07:30:39;;;;;;;0.80;0.60;;;;;;;;;;5088828;28;20123;-73
2022/01/22 07:33:05;;;;;;;0.70;0.70;;;;;;;;;;5088665;28;20032;-74
2022/01/22 07:35:34;;;;;;;1.57;1.00;;;;;;;;;;5090454;28;20040;-74
2022/01/22 07:38:01;;;;;;;1.57;0.60;;;;;;;;;;5090766;28;20104;-74
2022/01/22 07:40:27;;;;;;;0.83;0.70;;;;;;;;;;5090123;28;20071;-74
2022/01/22 07:42:52;;;;;;;0.77;0.60;;;;;;;;;;5090709;28;20062;-73
2022/01/22 07:45:18;;;;;;;2.17;0.83;;;;;;;;;;5089969;28;20031;-74
2022/01/22 07:47:44;;;;;;;0.87;0.83;;;;;;;;;;5090035;28;20289;-73
2022/01/22 07:50:09;;;;;;;0.87;0.77;;;;;;;;;;5088741;28;20017;-73
2022/01/22 07:52:35;;;;;;;1.53;0.87;;;;;;;;;;5088697;28;20028;-72
2022/01/22 07:55:01;;;;;;;1.53;0.73;;;;;;;;;;5088186;28;20191;-74
2022/01/22 07:57:26;;;;;;;1.20;0.90;;;;;;;;;;5088628;28;20020;-74
2022/01/22 07:59:52;;;;;;;2.60;1.67;;;;;;;;;;5089630;28;20020;-73
2022/01/22 08:02:17;;;;;;;1.57;0.80;;;;;;;;;;5089435;28;20440;-73
2022/01/22 08:04:43;;;;;;;1.83;0.77;;;;;;;;;;5088467;28;20020;-72
2022/01/22 08:07:09;;;;;;;3.37;1.20;;;;;;;;;;5089996;28;20051;-73
2022/01/22 08:09:35;;;;;;;1.20;0.90;;;;;;;;;;5089964;28;20102;-73
2022/01/22 08:12:01;;;;;;;1.57;1.10;;;;;;;;;;5088558;28;20027;-72
2022/01/22 08:14:27;;;;;;;1.17;0.90;;;;;;;;;;5088497;28;20076;-74
2022/01/22 08:16:53;;;;;;;1.23;1.10;;;;;;;;;;5089395;28;20367;-73
2022/01/22 08:19:18;;;;;;;1.10;1.00;;;;;;;;;;5090408;28;20020;-72
2022/01/22 08:21:45;;;;;;;3.20;1.37;;;;;;;;;;5090365;28;20055;-73
2022/01/22 08:24:13;;;;;;;5.77;1.20;;;;;;;;;;5089855;28;20107;-75
2022/01/22 08:26:46;;;;;;;2.53;1.50;;;;;;;;;;5090015;28;20086;-74
2022/01/22 08:29:12;;;;;;;2.03;1.13;;;;;;;;;;5090054;28;20031;-73
2022/01/22 08:31:47;;;;;;;1.53;1.20;;;;;;;;;;5094823;28;20071;-73
2022/01/22 08:36:57;;;;;;;1.30;0.90;;;;;;;;;;5093535;28;20055;-75
2022/01/22 08:39:23;;;;;;;1.57;0.87;;;;;;;;;;5092181;28;20040;-73
2022/01/22 08:41:48;;;;;;;2.97;1.23;;;;;;;;;;5093556;28;20081;-73
2022/01/22 08:44:15;;;;;;;3.63;1.60;;;;;;;;;;5093569;28;20027;-73
2022/01/22 08:46:41;;;;;;;2.00;1.27;;;;;;;;;;5093575;28;20024;-74
2022/01/22 08:49:08;;;;;;;1.57;1.07;;;;;;;;;;5093309;28;20022;-74
2022/01/22 08:51:34;;;;;;;4.10;1.43;;;;;;;;;;5093341;28;20391;-74
2022/01/22 08:54:01;;;;;;;2.37;0.93;;;;;;;;;;5091646;28;20030;-75
2022/01/22 08:56:28;;;;;;;5.33;2.10;;;;;;;;;;5093136;28;20031;-74
2022/01/22 08:58:54;;;;;;;2.57;1.37;;;;;;;;;;5091723;28;20127;-74
2022/01/22 09:01:20;;;;;;;2.43;1.00;;;;;;;;;;5092677;28;20062;-73
2022/01/22 09:03:46;;;;;;;1.43;0.93;;;;;;;;;;5091695;28;20048;-72
2022/01/22 09:06:12;;;;;;;2.87;1.10;;;;;;;;;;5091600;28;20545;-74
2022/01/22 09:08:39;;;;;;;3.50;1.00;;;;;;;;;;5091882;28;20115;-74
2022/01/22 09:11:06;;;;;;;5.33;1.20;;;;;;;;;;5093092;28;20063;-74
2022/01/22 09:13:32;;;;;;;2.17;1.10;;;;;;;;;;5093026;28;20395;-74
2022/01/22 09:15:58;;;;;;;3.30;1.30;;;;;;;;;;5092796;28;20424;-74
2022/01/22 09:18:23;;;;;;;3.43;1.30;;;;;;;;;;5092563;28;20055;-74
2022/01/22 09:23:15;;;;;;;1.57;1.47;;;;;;;;;;5092796;28;20020;-74
2022/01/22 09:25:42;;;;;;;5.00;1.07;;;;;;;;;;5091462;28;20024;-73
2022/01/22 09:28:10;;;;;;;2.23;1.20;;;;;;;;;;5092673;28;20055;-73
2022/01/22 09:30:36;;;;;;;2.40;1.10;;;;;;;;;;5091265;28;20073;-75
2022/01/22 09:33:02;;;;;;;2.67;1.30;;;;;;;;;;5092996;28;20017;-74
2022/01/22 09:35:28;;;;;;;2.70;1.30;;;;;;;;;;5092664;28;20122;-75
2022/01/22 09:37:53;;;;;;;1.30;0.97;;;;;;;;;;5092450;28;20024;-76
2022/01/22 09:40:20;;;;;;;2.10;1.00;;;;;;;;;;5091899;28;20050;-73
2022/01/22 09:42:46;;;;;;;4.93;1.47;;;;;;;;;;5092383;28;20114;-75
2022/01/22 09:45:15;;;;;;;4.67;1.10;;;;;;;;;;5090718;28;20162;-74
2022/01/22 09:47:45;;;;;;;4.23;1.40;;;;;;;;;;5090801;28;20033;-74
2022/01/22 09:50:11;;;;;;;4.03;1.90;;;;;;;;;;5090795;28;20020;-74
2022/01/22 09:52:38;;;;;;;2.27;1.30;;;;;;;;;;5090915;28;20024;-74
2022/01/22 09:55:04;;;;;;;3.57;1.43;;;;;;;;;;5090690;28;20077;-74
2022/01/22 09:57:33;;;;;;;3.47;2.10;;;;;;;;;;5091004;28;20024;-74
2022/01/22 09:59:58;;;;;;;9.67;2.23;;;;;;;;;;5092062;28;20024;-74
2022/01/22 10:02:24;;;;;;;3.13;1.20;;;;;;;;;;5091961;28;20035;-74
2022/01/22 10:04:52;;;;;;;4.53;1.73;;;;;;;;;;5092031;28;20448;-74
2022/01/22 10:07:21;;;;;;;1.93;1.57;;;;;;;;;;5091656;28;20103;-72
2022/01/22 10:09:59;;;;;;;2.00;1.73;;;;;;;;;;5091628;28;20085;-74
2022/01/22 10:12:28;;;;;;;6.97;2.70;;;;;;;;;;5090527;28;20024;-73
2022/01/22 10:15:08;;;;;;;4.47;2.00;;;;;;;;;;5092308;28;20028;-75
2022/01/22 10:17:54;;;;;;;4.33;2.20;;;;;;;;;;5092434;28;20323;-74
2022/01/22 10:20:23;;;;;;;5.90;1.80;;;;;;;;;;5090122;28;20028;-74
2022/01/22 10:23:03;;;;;;;3.07;1.80;;;;;;;;;;5091724;28;20036;-74
2022/01/22 10:25:33;;;;;;;4.17;1.90;;;;;;;;;;5090257;28;20101;-74
2022/01/22 10:28:09;;;;;;;2.50;1.70;;;;;;;;;;5090303;28;20487;-75
2022/01/22 10:30:37;;;;;;;2.73;1.90;;;;;;;;;;5091613;28;20016;-75
2022/01/22 10:35:46;;;;;;;2.67;1.43;;;;;;;;;;5091328;28;20055;-74
2022/01/22 10:38:11;;;;;;;1.60;1.30;;;;;;;;;;5089687;28;20028;-73
2022/01/22 10:40:38;;;;;;;1.90;1.50;;;;;;;;;;5089884;28;20027;-73
2022/01/22 10:43:28;;;;;;;3.40;1.57;;;;;;;;;;5089900;28;20024;-73
2022/01/22 10:45:59;;;;;;;5.27;1.43;;;;;;;;;;5091628;28;20027;-74
2022/01/22 10:48:25;;;;;;;2.27;1.37;;;;;;;;;;5089599;28;20035;-73
2022/01/22 10:51:09;;;;;;;3.03;1.30;;;;;;;;;;5090925;28;20028;-73
2022/01/22 10:53:50;;;;;;;1.63;1.23;;;;;;;;;;5088706;28;20498;-72
2022/01/22 10:56:22;;;;;;;2.37;1.23;;;;;;;;;;5091158;28;20027;-74
2022/01/22 10:59:03;;;;;;;2.53;1.58;;;;;;;;;;5091223;28;20024;-74
2022/01/22 11:01:43;;;;;;;1.80;1.17;;;;;;;;;;5090661;28;20028;-75
2022/01/22 11:04:13;;;;;;;1.33;1.10;;;;;;;;;;5090770;28;20299;-74
2022/01/22 11:06:45;;;;;;;2.93;1.57;;;;;;;;;;5090942;28;20035;-74
2022/01/22 11:09:11;;;;;;;4.45;1.65;;;;;;;;;;5090622;28;20080;-73
2022/01/22 11:11:39;;;;;;;2.57;1.40;;;;;;;;;;5089437;28;20127;-74
2022/01/22 11:14:08;;;;;;;2.07;1.13;;;;;;;;;;5089078;28;20034;-75
2022/01/22 11:16:34;;;;;;;5.30;1.10;;;;;;;;;;5089078;28;20062;-73
2022/01/22 11:19:02;;;;;;;3.27;1.80;;;;;;;;;;5090515;28;20376;-73
2022/01/22 11:21:29;;;;;;;2.17;1.33;;;;;;;;;;5088770;28;20076;-74
2022/01/22 11:23:54;;;;;;;2.93;1.60;;;;;;;;;;5089245;28;20040;-73
2022/01/22 11:26:20;;;;;;;2.50;1.70;;;;;;;;;;5071896;28;20080;-74
2022/01/22 11:28:51;;;;;;;3.97;1.40;;;;;;;;;;5090413;28;20020;-73
2022/01/22 11:31:17;;;;;;;2.60;1.70;;;;;;;;;;5089387;28;20024;-74
2022/01/22 11:33:46;;;;;;;2.50;1.60;;;;;;;;;;5089136;28;20043;-74
2022/01/22 11:36:25;;;;;;;4.47;1.73;;;;;;;;;;5088710;28;20109;-74
2022/01/22 11:38:56;;;;;;;1.63;1.43;;;;;;;;;;5089382;28;20506;-74
2022/01/22 11:41:23;;;;;;;3.58;2.15;;;;;;;;;;5088869;28;20024;-75
2022/01/22 11:44:07;;;;;;;4.80;1.83;;;;;;;;;;5090158;28;20066;-74
2022/01/22 11:46:50;;;;;;;5.70;5.13;;;;;;;;;;5088745;28;20099;-74
2022/01/22 11:49:21;;;;;;;5.57;2.33;;;;;;;;;;5088188;28;20792;-74
2022/01/22 11:51:49;;;;;;;7.33;2.70;;;;;;;;;;5089650;28;20027;-74
2022/01/22 11:54:18;;;;;;;6.20;4.20;;;;;;;;;;5088168;28;20035;-75
2022/01/22 11:56:53;;;;;;;1.60;1.30;;;;;;;;;;5088692;28;20032;-74
2022/01/22 11:59:22;;;;;;;5.63;2.43;;;;;;;;;;5088325;28;20028;-74
2022/01/22 12:01:50;;;;;;;5.03;2.00;;;;;;;;;;5090165;28;20024;-74
2022/01/22 12:04:38;;;;;;;4.00;1.43;;;;;;;;;;5088137;28;20031;-74
2022/01/22 12:07:03;;;;;;;1.43;1.33;;;;;;;;;;5090280;28;20032;-74
2022/01/22 12:15:11;;;;;;;3.50;1.95;;;;;;;;;;5089650;28;20043;-74
2022/01/22 12:23:19;;;;;;;4.67;1.60;;;;;;;;;;5089455;28;20104;-74
2022/01/22 12:25:44;;;;;;;1.73;1.10;;;;;;;;;;5089858;28;20046;-74
2022/01/22 12:28:14;;;;;;;16.73;2.33;;;;;;;;;;5089659;28;20476;-75
2022/01/22 12:30:44;;;;;;;1.33;1.20;;;;;;;;;;5089480;28;20127;-74
2022/01/22 12:33:15;;;;;;;6.37;1.87;;;;;;;;;;5087782;28;20024;-73
2022/01/22 12:35:48;;;;;;;2.80;1.37;;;;;;;;;;5089430;28;20373;-74
2022/01/22 12:38:29;;;;;;;2.80;1.77;;;;;;;;;;5087893;28;20423;-74
2022/01/22 12:41:58;;;;;;;3.70;1.30;;;;;;;;;;5088286;28;20089;-74
2022/01/22 12:44:12;;;;;;;4.47;1.53;;;;;;;;;;5085715;28;20038;-75
2022/01/22 12:46:38;;;;;;;2.87;1.37;;;;;;;;;;5089550;28;20511;-74
2022/01/22 12:49:06;;;;;;;7.33;1.63;;;;;;;;;;5088259;28;20116;-75
2022/01/22 12:51:32;;;;;;;3.90;1.13;;;;;;;;;;5091791;28;20098;-75
2022/01/22 12:53:58;;;;;;;5.27;1.77;;;;;;;;;;5091660;28;20031;-74
2022/01/22 12:56:48;;;;;;;4.17;1.90;;;;;;;;;;5089782;28;20119;-74
2022/01/22 12:59:10;;;;;;;4.23;1.40;;;;;;;;;;5089502;28;20024;-75
2022/01/22 13:01:42;;;;;;;3.60;1.20;;;;;;;;;;5089120;28;20085;-75
2022/01/22 13:04:08;;;;;;;4.18;1.48;;;;;;;;;;5088340;28;20537;-74
2022/01/22 13:06:48;;;;;;;5.00;1.10;;;;;;;;;;5087564;28;20063;-74
2022/01/22 13:09:14;;;;;;;4.20;1.43;;;;;;;;;;5087951;28;20024;-74
2022/01/22 13:11:49;;;;;;;2.10;1.90;;;;;;;;;;5089095;28;20025;-74
2022/01/22 13:14:32;;;;;;;9.03;2.07;;;;;;;;;;5087736;28;20046;-75
2022/01/22 13:16:58;;;;;;;4.67;1.53;;;;;;;;;;5092031;28;20055;-72
2022/01/22 13:19:28;;;;;;;9.20;2.10;;;;;;;;;;5091377;28;20493;-74
2022/01/22 13:21:59;;;;;;;6.57;1.60;;;;;;;;;;5091736;28;20038;-74
2022/01/22 13:24:27;;;;;;;3.83;1.40;;;;;;;;;;5092908;28;20452;-74
2022/01/22 13:27:01;;;;;;;4.30;1.33;;;;;;;;;;5093157;28;20035;-73
2022/01/22 13:29:38;;;;;;;7.77;2.00;;;;;;;;;;5092829;28;20024;-73
2022/01/22 13:32:11;;;;;;;3.63;2.13;;;;;;;;;;5093208;28;20187;-74
2022/01/22 13:35:08;;;;;;;4.10;1.40;;;;;;;;;;5092783;28;20036;-75
2022/01/22 13:45:06;;;;;;;9.73;2.00;;;;;;;;;;5092824;28;20507;-73
2022/01/22 13:49:27;;;;;;;5.97;1.57;;;;;;;;;;5092269;28;20388;-73
2022/01/22 13:51:55;;;;;;;3.80;1.50;;;;;;;;;;5092075;28;20089;-73
2022/01/22 13:54:27;;;;;;;3.57;2.70;;;;;;;;;;5090465;28;20055;-74
2022/01/22 13:56:55;;;;;;;;;;;;;;;;;;5091432;28;20030;-73
2022/01/22 13:59:27;;;;;;;7.10;1.30;;;;;;;;;;5091770;28;19938;-74
2022/01/22 14:02:31;;;;;;;4.50;1.67;;;;;;;;;;5090947;28;20020;-74
2022/01/22 14:04:59;;;;;;;4.67;1.27;;;;;;;;;;5092250;28;20024;-74
2022/01/22 14:07:28;;;;;;;4.70;1.67;;;;;;;;;;5090173;28;20043;-73
2022/01/22 14:09:53;;;;;;;10.33;2.40;;;;;;;;;;5090338;28;20024;-73
2022/01/22 14:12:19;;;;;;;17.73;2.63;;;;;;;;;;5091436;28;20027;-74
2022/01/22 14:15:10;;;;;;;6.90;2.00;;;;;;;;;;5090151;28;20135;-74
2022/01/22 14:17:52;;;;;;;10.43;2.30;;;;;;;;;;5091939;28;20024;-74
2022/01/22 14:20:25;;;;;;;18.83;2.63;;;;;;;;;;5091501;28;20024;-74
2022/01/22 14:22:52;;;;;;;5.13;1.50;;;;;;;;;;5090375;28;20028;-74
2022/01/22 14:25:18;;;;;;;2.70;1.37;;;;;;;;;;5090120;28;20380;-74
2022/01/22 14:27:54;;;;;;;8.47;1.83;;;;;;;;;;5090192;28;20023;-73
2022/01/22 14:30:38;;;;;;;6.43;1.63;;;;;;;;;;5090000;28;20024;-73
2022/01/22 14:33:05;;;;;;;5.37;1.77;;;;;;;;;;5090183;28;20028;-74
2022/01/22 14:35:31;;;;;;;2.50;1.23;;;;;;;;;;5091503;28;20040;-74
2022/01/22 14:38:32;;;;;;;6.23;2.90;;;;;;;;;;5091674;28;20047;-73
2022/01/22 14:46:45;;;;;;;8.67;1.87;;;;;;;;;;5092435;28;20055;-73
2022/01/22 14:49:11;;;;;;;24.97;10.77;;;;;;;;;;5089793;28;20047;-75
2022/01/22 14:51:38;;;;;;;8.37;2.70;;;;;;;;;;5089485;28;20031;-75
2022/01/22 14:54:04;;;;;;;2.87;1.97;;;;;;;;;;5089823;28;20028;-73
2022/01/22 14:56:30;;;;;;;4.93;1.77;;;;;;;;;;5089663;28;20282;-73
2022/01/22 14:58:55;;;;;;;14.53;2.80;;;;;;;;;;5090799;28;20085;-75
2022/01/22 15:01:21;;;;;;;11.13;2.43;;;;;;;;;;5090841;28;20030;-75
2022/01/22 15:03:46;;;;;;;20.43;3.43;;;;;;;;;;5091167;28;20020;-73
2022/01/22 15:06:13;;;;;;;11.83;2.90;;;;;;;;;;5090937;28;20480;-74
2022/01/22 15:08:39;;;;;;;8.80;3.20;;;;;;;;;;5089060;28;20031;-74
2022/01/22 15:11:04;;;;;;;12.43;3.67;;;;;;;;;;5089409;28;20016;-73
2022/01/22 15:13:31;;;;;;;4.43;2.23;;;;;;;;;;5090749;28;20024;-74
2022/01/22 15:16:01;;;;;;;8.57;2.23;;;;;;;;;;5089404;28;20031;-73
2022/01/22 15:18:50;;;;;;;13.80;2.47;;;;;;;;;;5090410;28;20058;-73
2022/01/22 15:21:12;;;;;;;4.97;1.83;;;;;;;;;;5089321;28;20055;-74
2022/01/22 15:23:38;;;;;;;8.53;2.20;;;;;;;;;;5088997;28;20496;-73
2022/01/22 15:26:05;;;;;;;6.90;2.00;;;;;;;;;;5090641;28;20024;-74
2022/01/22 15:28:41;;;;;;;9.40;2.53;;;;;;;;;;5088852;28;20024;-74
2022/01/22 15:31:15;;;;;;;9.40;2.70;;;;;;;;;;5090614;28;20019;-74
2022/01/22 15:33:51;;;;;;;5.20;2.20;;;;;;;;;;5105317;28;20585;-74
2022/01/22 15:36:17;;;;;;;5.93;2.10;;;;;;;;;;5090454;28;20048;-74
2022/01/22 15:38:42;;;;;;;23.20;2.77;;;;;;;;;;5088190;28;20025;-74
2022/01/22 15:41:08;;;;;;;14.67;2.17;;;;;;;;;;5088711;28;20111;-73
2022/01/22 15:43:34;;;;;;;7.17;1.97;;;;;;;;;;5090650;28;20243;-75
2022/01/22 15:45:59;;;;;;;6.13;1.70;;;;;;;;;;5090328;28;20107;-74
2022/01/22 15:48:25;;;;;;;4.17;1.90;;;;;;;;;;5090008;28;20035;-75
2022/01/22 15:50:50;;;;;;;6.63;2.20;;;;;;;;;;5090439;28;20077;-73
2022/01/22 15:53:17;;;;;;;3.23;1.80;;;;;;;;;;5089912;28;20050;-73
2022/01/22 15:55:49;;;;;;;4.83;1.93;;;;;;;;;;5088630;28;20123;-75
2022/01/22 15:58:14;;;;;;;3.75;2.22;;;;;;;;;;5090889;28;20480;-73
2022/01/22 16:00:41;;;;;;;7.53;2.10;;;;;;;;;;5088179;28;20042;-74
2022/01/22 16:03:07;;;;;;;4.63;2.50;;;;;;;;;;5088395;28;20035;-74
2022/01/22 16:05:34;;;;;;;6.27;2.90;;;;;;;;;;5088470;28;20491;-74
2022/01/22 16:08:00;;;;;;;3.37;1.90;;;;;;;;;;5089059;28;20487;-73
2022/01/22 16:10:26;;;;;;;6.90;2.23;;;;;;;;;;5089350;28;20068;-73
2022/01/22 16:12:51;;;;;;;11.23;2.70;;;;;;;;;;5089416;28;20024;-73
2022/01/22 16:15:17;;;;;;;6.80;2.20;;;;;;;;;;5088771;28;20031;-73
2022/01/22 16:17:46;;;;;;;5.27;2.80;;;;;;;;;;5088509;28;20043;-74
2022/01/22 16:20:13;;;;;;;7.37;2.70;;;;;;;;;;5089887;28;20056;-74
2022/01/22 16:22:39;;;;;;;11.00;4.50;;;;;;;;;;5089357;28;20072;-75
2022/01/22 16:25:05;;;;;;;9.50;3.00;;;;;;;;;;5089684;28;20036;-73
2022/01/22 16:27:33;;;;;;;9.87;2.93;;;;;;;;;;5088380;28;20036;-74
2022/01/22 16:29:59;;;;;;;5.37;2.60;;;;;;;;;;5090357;28;20040;-74
2022/01/22 16:32:26;;;;;;;33.17;4.77;;;;;;;;;;5088206;28;20060;-74
2022/01/22 16:34:56;;;;;;;10.80;3.30;;;;;;;;;;5089764;28;20029;-73
2022/01/22 16:37:22;;;;;;;14.67;3.23;;;;;;;;;;5087882;28;20440;-74
2022/01/22 16:39:49;;;;;;;20.23;3.80;;;;;;;;;;5087973;28;20039;-73
2022/01/22 16:42:16;;;;;;;6.37;3.00;;;;;;;;;;5089407;28;20475;-74
2022/01/22 16:57:59;;;;;;;13.73;3.40;;;;;;;;;;5092429;28;20464;-74
2022/01/22 17:00:30;;;;;;;13.90;4.00;;;;;;;;;;5091653;28;20032;-74
2022/01/22 17:02:56;;;;;;;16.53;4.17;;;;;;;;;;5093613;28;20069;-74
2022/01/22 17:05:24;;;;;;;15.10;4.83;;;;;;;;;;5093623;28;20568;-74
2022/01/22 17:10:34;;;;;;;9.87;3.17;;;;;;;;;;5093863;28;20463;-74
2022/01/22 17:15:44;;;;;;;7.33;3.53;;;;;;;;;;5094148;28;20036;-73